Time;durP1;ratioP1;P1;durP2;ratioP2;P2;SDS_P1;SDS_P2;PMS_P1;PMS_P2;Temp;Humidity;BMP_temperature;BMP_pressure;BME280_temperature;BME280_humidity;BME280_pressure;Samples;Min_cycle;Max_cycle;Signal;HPM_P1;HPM_P2
2021/07/18 00:00:48;;;;;;;9.00;6.70;;;19.60;99.90;;;;;;5056471;28;20621;-72
2021/07/18 00:03:15;;;;;;;7.27;5.93;;;19.50;99.90;;;;;;5056384;28;20619;-72
2021/07/18 00:05:41;;;;;;;7.57;5.10;;;19.50;99.90;;;;;;5056324;28;20607;-71
2021/07/18 00:08:07;;;;;;;7.27;4.27;;;19.40;99.90;;;;;;5056449;28;20625;-71
2021/07/18 00:10:34;;;;;;;4.70;4.30;;;19.40;99.90;;;;;;5055878;28;20666;-72
2021/07/18 00:13:00;;;;;;;5.87;4.30;;;19.40;99.90;;;;;;5056214;28;20981;-72
2021/07/18 00:15:27;;;;;;;5.20;4.70;;;19.40;99.90;;;;;;5054701;28;20627;-72
2021/07/18 00:17:53;;;;;;;13.23;11.43;;;19.40;99.90;;;;;;5056019;28;20955;-72
2021/07/18 00:20:19;;;;;;;13.17;5.60;;;19.30;99.90;;;;;;5056062;28;20623;-72
2021/07/18 00:22:46;;;;;;;4.70;4.30;;;19.30;99.90;;;;;;5055988;28;20676;-72
2021/07/18 00:25:12;;;;;;;6.17;4.23;;;19.30;99.90;;;;;;5055646;28;20669;-72
2021/07/18 00:27:39;;;;;;;6.23;4.13;;;19.30;99.90;;;;;;5055836;28;21175;-72
2021/07/18 00:30:07;;;;;;;8.03;4.90;;;19.20;99.90;;;;;;5055875;28;21012;-72
2021/07/18 00:32:34;;;;;;;6.63;4.30;;;19.10;99.90;;;;;;5055801;28;20610;-72
2021/07/18 00:35:00;;;;;;;4.50;4.10;;;19.10;99.90;;;;;;5055950;28;20625;-72
2021/07/18 00:37:26;;;;;;;9.57;4.27;;;19.10;99.90;;;;;;5055686;28;20607;-71
2021/07/18 00:39:53;;;;;;;6.33;4.43;;;19.10;99.90;;;;;;5055571;28;20650;-71
2021/07/18 00:42:19;;;;;;;9.70;4.00;;;19.00;99.90;;;;;;5055704;28;20676;-71
2021/07/18 00:44:46;;;;;;;5.57;4.03;;;18.90;99.90;;;;;;5055804;28;20664;-72
2021/07/18 00:47:13;;;;;;;4.00;3.60;;;18.90;99.90;;;;;;5055858;28;20619;-72
2021/07/18 00:49:39;;;;;;;3.63;3.43;;;18.90;99.90;;;;;;5055497;28;20641;-72
2021/07/18 00:52:07;;;;;;;6.83;3.50;;;18.80;99.90;;;;;;5055712;28;21145;-72
2021/07/18 00:54:34;;;;;;;6.70;3.80;;;18.80;99.90;;;;;;5055597;28;20646;-72
2021/07/18 00:57:01;;;;;;;4.20;3.50;;;18.80;99.90;;;;;;5055507;28;20669;-71
2021/07/18 00:59:28;;;;;;;4.30;3.53;;;18.80;99.90;;;;;;5055083;28;20630;-71
2021/07/18 01:01:55;;;;;;;4.60;3.03;;;18.70;99.90;;;;;;5055370;28;20623;-74
2021/07/18 01:04:22;;;;;;;5.00;3.67;;;18.70;99.90;;;;;;5055294;28;21141;-71
2021/07/18 01:06:48;;;;;;;4.77;3.83;;;18.60;99.90;;;;;;5055168;28;20618;-71
2021/07/18 01:09:14;;;;;;;6.70;3.90;;;18.60;99.90;;;;;;5055267;28;20680;-71
2021/07/18 01:11:41;;;;;;;3.70;3.40;;;18.60;99.90;;;;;;5055039;28;20638;-71
2021/07/18 01:14:08;;;;;;;8.87;3.73;;;18.50;99.90;;;;;;5054782;28;20622;-71
2021/07/18 01:16:34;;;;;;;6.13;3.43;;;18.50;99.90;;;;;;5055173;28;21137;-71
2021/07/18 01:19:00;;;;;;;6.90;3.43;;;18.40;99.90;;;;;;5055177;28;20599;-71
2021/07/18 01:21:28;;;;;;;9.63;3.27;;;18.40;99.90;;;;;;5054835;28;21151;-71
2021/07/18 01:23:54;;;;;;;6.23;3.20;;;18.40;99.90;;;;;;5054695;28;20602;-71
2021/07/18 01:26:21;;;;;;;10.40;3.60;;;18.40;99.90;;;;;;5055046;28;21004;-71
2021/07/18 01:28:48;;;;;;;4.03;3.60;;;18.40;99.90;;;;;;5054704;28;20594;-71
2021/07/18 01:31:14;;;;;;;5.97;3.03;;;18.30;99.90;;;;;;5054566;28;20647;-71
2021/07/18 01:33:40;;;;;;;5.57;3.10;;;18.30;99.90;;;;;;5054911;28;20669;-71
2021/07/18 01:36:07;;;;;;;4.73;3.00;;;18.30;99.90;;;;;;5054771;28;20945;-71
2021/07/18 01:38:33;;;;;;;3.33;2.60;;;18.30;99.90;;;;;;5054371;28;20994;-70
2021/07/18 01:40:59;;;;;;;4.50;3.30;;;18.20;99.90;;;;;;5054288;28;20615;-71
2021/07/18 01:43:26;;;;;;;5.70;2.90;;;18.10;99.90;;;;;;5052711;28;20623;-71
2021/07/18 01:45:52;;;;;;;8.57;3.30;;;18.10;99.90;;;;;;5054232;28;20599;-71
2021/07/18 01:48:19;;;;;;;2.97;2.50;;;18.20;99.90;;;;;;5054088;28;20650;-71
2021/07/18 01:50:45;;;;;;;5.70;2.73;;;18.10;99.90;;;;;;5054137;28;22575;-71
2021/07/18 01:53:12;;;;;;;3.93;3.47;;;18.20;99.90;;;;;;5054396;28;20615;-71
2021/07/18 01:55:38;;;;;;;4.53;3.70;;;18.10;99.90;;;;;;5054240;28;21168;-71
2021/07/18 01:58:05;;;;;;;6.20;2.70;;;18.10;99.90;;;;;;5054455;28;20611;-71
2021/07/18 02:00:31;;;;;;;6.53;2.60;;;18.10;99.90;;;;;;5054103;28;20642;-70
2021/07/18 02:02:57;;;;;;;3.50;2.97;;;18.10;99.90;;;;;;5053938;28;20599;-70
2021/07/18 02:05:24;;;;;;;3.33;2.80;;;18.10;99.90;;;;;;5054220;28;20611;-70
2021/07/18 02:07:51;;;;;;;4.40;2.90;;;18.10;99.90;;;;;;5054170;28;21141;-71
2021/07/18 02:10:20;;;;;;;3.10;2.20;;;18.00;99.90;;;;;;5053762;28;20673;-71
2021/07/18 02:12:48;;;;;;;4.00;2.30;;;18.10;99.90;;;;;;5053810;28;21212;-71
2021/07/18 02:15:17;;;;;;;5.43;2.30;;;18.00;99.90;;;;;;5054279;28;21179;-70
2021/07/18 02:17:44;;;;;;;4.47;2.23;;;18.00;99.90;;;;;;5054120;28;20962;-70
2021/07/18 02:20:13;;;;;;;3.93;1.90;;;17.90;99.90;;;;;;5053229;28;20599;-71
2021/07/18 02:22:53;;;;;;;4.40;2.57;;;17.90;99.90;;;;;;5053788;28;21210;-70
2021/07/18 02:25:22;;;;;;;3.93;2.80;;;17.90;99.90;;;;;;5053851;28;20566;-70
2021/07/18 02:27:49;;;;;;;3.03;2.70;;;17.80;99.90;;;;;;5053622;28;20618;-70
2021/07/18 02:30:19;;;;;;;4.20;2.40;;;17.80;99.90;;;;;;5053577;28;20660;-70
2021/07/18 02:32:45;;;;;;;6.10;2.80;;;17.80;99.90;;;;;;5053868;28;20653;-70
2021/07/18 02:35:14;;;;;;;3.70;1.70;;;17.70;99.90;;;;;;5053562;28;20603;-70
2021/07/18 02:37:41;;;;;;;3.87;2.83;;;17.70;99.90;;;;;;5053777;28;20665;-71
2021/07/18 02:40:08;;;;;;;5.37;2.67;;;17.70;99.90;;;;;;5053386;28;20634;-71
2021/07/18 02:42:35;;;;;;;2.30;2.20;;;17.70;99.90;;;;;;5053514;28;20591;-70
2021/07/18 02:45:03;;;;;;;4.83;2.23;;;17.70;99.90;;;;;;5053286;28;20627;-70
2021/07/18 02:47:29;;;;;;;5.27;2.40;;;17.70;99.90;;;;;;5053566;28;20621;-70
2021/07/18 02:49:56;;;;;;;5.40;2.30;;;17.70;99.90;;;;;;5053625;28;20583;-70
2021/07/18 02:52:22;;;;;;;5.13;2.23;;;17.70;99.90;;;;;;5053181;28;20643;-70
2021/07/18 02:54:50;;;;;;;3.87;1.93;;;17.70;99.90;;;;;;5053342;28;20645;-70
2021/07/18 02:57:17;;;;;;;2.33;2.13;;;17.60;99.90;;;;;;5053431;28;20634;-70
2021/07/18 02:59:44;;;;;;;2.90;2.00;;;17.60;99.90;;;;;;5053178;28;20609;-70
2021/07/18 03:02:10;;;;;;;2.30;2.03;;;17.60;99.90;;;;;;5053163;28;20982;-70
2021/07/18 03:04:37;;;;;;;6.50;2.00;;;17.60;99.90;;;;;;5053055;28;20631;-70
2021/07/18 03:07:03;;;;;;;4.93;2.20;;;17.60;99.90;;;;;;5053283;28;20623;-70
2021/07/18 03:09:29;;;;;;;6.90;2.47;;;17.50;99.90;;;;;;5058655;28;20626;-70
2021/07/18 03:11:56;;;;;;;3.40;2.50;;;17.50;99.90;;;;;;5072207;28;20681;-70
2021/07/18 03:14:22;;;;;;;2.67;2.47;;;17.50;99.90;;;;;;5073118;28;20618;-71
2021/07/18 03:16:48;;;;;;;3.47;2.27;;;17.40;99.90;;;;;;5073482;28;21000;-70
2021/07/18 03:19:15;;;;;;;3.30;2.27;;;17.40;99.90;;;;;;5073265;28;20672;-71
2021/07/18 03:21:42;;;;;;;3.87;1.73;;;17.30;99.90;;;;;;5073107;28;20591;-70
2021/07/18 03:24:09;;;;;;;5.53;2.13;;;17.30;99.90;;;;;;5073048;28;20594;-71
2021/07/18 03:26:35;;;;;;;3.33;2.17;;;17.30;99.90;;;;;;5073160;28;21127;-70
2021/07/18 03:29:02;;;;;;;2.43;2.23;;;17.30;99.90;;;;;;5073314;28;21186;-71
2021/07/18 03:31:28;;;;;;;4.80;2.50;;;17.30;99.90;;;;;;5075312;28;21196;-71
2021/07/18 03:33:54;;;;;;;3.37;2.20;;;17.20;99.90;;;;;;5076995;28;20620;-70
2021/07/18 03:36:21;;;;;;;6.60;2.50;;;17.20;99.90;;;;;;5076778;28;20583;-70
2021/07/18 03:38:47;;;;;;;2.83;2.23;;;17.10;99.90;;;;;;5076645;28;20594;-69
2021/07/18 03:41:13;;;;;;;6.30;2.50;;;17.10;99.90;;;;;;5076740;28;20689;-70
2021/07/18 03:43:39;;;;;;;4.03;2.20;;;17.10;99.90;;;;;;5076832;28;20625;-70
2021/07/18 03:46:06;;;;;;;2.60;2.30;;;17.10;99.90;;;;;;5076444;28;20600;-70
2021/07/18 03:48:32;;;;;;;2.43;2.20;;;17.00;99.90;;;;;;5076412;28;20641;-70
2021/07/18 03:50:58;;;;;;;3.40;2.30;;;17.00;99.90;;;;;;5076524;28;20614;-70
2021/07/18 03:53:24;;;;;;;2.50;2.30;;;17.00;99.90;;;;;;5076341;28;20610;-70
2021/07/18 03:55:51;;;;;;;5.80;2.40;;;17.00;99.90;;;;;;5076596;28;20962;-70
2021/07/18 03:58:17;;;;;;;4.83;2.20;;;17.00;99.90;;;;;;5076604;28;20610;-70
2021/07/18 04:00:43;;;;;;;3.63;2.30;;;17.00;99.90;;;;;;5076552;28;21015;-71
2021/07/18 04:03:10;;;;;;;3.83;2.20;;;17.00;99.90;;;;;;5076431;28;20608;-70
2021/07/18 04:05:36;;;;;;;4.30;2.40;;;17.00;99.90;;;;;;5076114;28;20627;-71
2021/07/18 04:08:03;;;;;;;3.53;2.00;;;17.00;99.90;;;;;;5076420;28;20640;-71
2021/07/18 04:10:29;;;;;;;3.73;2.83;;;17.00;99.90;;;;;;5076251;28;20717;-71
2021/07/18 04:12:57;;;;;;;5.27;2.63;;;17.00;99.90;;;;;;5076558;28;20650;-71
2021/07/18 04:15:25;;;;;;;4.27;2.63;;;17.00;99.90;;;;;;5076190;28;20593;-71
2021/07/18 04:17:52;;;;;;;2.77;2.30;;;17.00;99.90;;;;;;5076030;28;21159;-71
2021/07/18 04:20:19;;;;;;;7.70;3.03;;;17.00;99.90;;;;;;5075788;28;21008;-71
2021/07/18 04:22:45;;;;;;;5.80;2.50;;;17.00;99.90;;;;;;5076068;28;20614;-71
2021/07/18 04:25:12;;;;;;;5.07;2.30;;;17.00;99.90;;;;;;5075944;28;21140;-71
2021/07/18 04:27:38;;;;;;;5.37;2.20;;;17.00;99.90;;;;;;5076187;28;20617;-71
2021/07/18 04:30:05;;;;;;;4.43;2.20;;;17.00;99.90;;;;;;5076070;28;20610;-71
2021/07/18 04:32:32;;;;;;;4.43;2.27;;;17.00;99.90;;;;;;5073746;28;20707;-71
2021/07/18 04:34:58;;;;;;;5.70;2.33;;;17.00;99.90;;;;;;5075221;28;20590;-71
2021/07/18 04:37:24;;;;;;;6.30;2.60;;;17.10;99.90;;;;;;5075633;28;20617;-71
2021/07/18 04:39:51;;;;;;;3.33;2.43;;;17.10;99.90;;;;;;5075547;28;20626;-71
2021/07/18 04:42:17;;;;;;;2.50;2.00;;;17.20;99.90;;;;;;5075316;28;21144;-71
2021/07/18 04:44:43;;;;;;;4.13;2.00;;;17.20;99.90;;;;;;5075846;28;21128;-71
2021/07/18 04:47:09;;;;;;;4.57;2.50;;;17.20;99.90;;;;;;5075533;28;20705;-71
2021/07/18 04:49:40;;;;;;;5.53;2.70;;;17.30;99.90;;;;;;5075461;28;20760;-71
2021/07/18 04:52:06;;;;;;;3.27;2.03;;;17.30;99.90;;;;;;5075325;28;20625;-71
2021/07/18 04:54:33;;;;;;;7.30;2.20;;;17.40;99.90;;;;;;5075647;28;20614;-71
2021/07/18 04:56:59;;;;;;;4.17;2.07;;;17.50;99.90;;;;;;5075641;28;20664;-71
2021/07/18 04:59:25;;;;;;;3.63;2.67;;;17.50;99.90;;;;;;5075510;28;20629;-71
2021/07/18 05:01:53;;;;;;;2.10;2.00;;;17.60;99.90;;;;;;5075289;28;21124;-71
2021/07/18 05:04:20;;;;;;;3.50;2.37;;;17.70;99.90;;;;;;5075276;28;20633;-71
2021/07/18 05:06:46;;;;;;;4.50;2.43;;;17.70;99.90;;;;;;5075040;28;20590;-71
2021/07/18 05:09:12;;;;;;;3.97;2.63;;;17.80;99.90;;;;;;5075291;28;20622;-71
2021/07/18 05:11:39;;;;;;;2.70;2.37;;;17.90;99.90;;;;;;5075129;28;20633;-71
2021/07/18 05:14:05;;;;;;;4.23;2.70;;;17.90;99.90;;;;;;5075344;28;20660;-71
2021/07/18 05:16:31;;;;;;;5.10;2.03;;;17.90;99.90;;;;;;5074895;28;20594;-71
2021/07/18 05:18:58;;;;;;;2.20;2.00;;;18.00;99.90;;;;;;5075075;28;20618;-71
2021/07/18 05:21:24;;;;;;;2.33;2.13;;;18.10;99.90;;;;;;5074975;28;20664;-71
2021/07/18 05:23:50;;;;;;;6.43;2.30;;;18.10;99.90;;;;;;5074668;28;20598;-71
2021/07/18 05:26:16;;;;;;;4.60;1.80;;;18.20;99.90;;;;;;5074963;28;21136;-71
2021/07/18 05:28:43;;;;;;;7.93;2.70;;;18.30;99.90;;;;;;5074852;28;20614;-71
2021/07/18 05:31:10;;;;;;;8.80;2.40;;;18.30;99.90;;;;;;5074846;28;20614;-71
2021/07/18 05:33:36;;;;;;;4.40;1.80;;;18.40;99.90;;;;;;5074649;28;20658;-71
2021/07/18 05:36:03;;;;;;;3.07;1.83;;;18.50;99.90;;;;;;5073110;28;20614;-71
2021/07/18 05:38:29;;;;;;;11.40;2.50;;;18.60;99.90;;;;;;5074611;28;20641;-71
2021/07/18 05:40:55;;;;;;;5.03;2.00;;;18.70;99.90;;;;;;5074492;28;20630;-71
2021/07/18 05:43:22;;;;;;;3.20;2.90;;;18.70;99.90;;;;;;5074300;28;20622;-71
2021/07/18 05:45:48;;;;;;;2.47;1.93;;;18.70;99.90;;;;;;5072916;28;20624;-71
2021/07/18 05:48:20;;;;;;;3.57;2.23;;;18.80;99.90;;;;;;5074171;28;20648;-71
2021/07/18 05:50:47;;;;;;;4.23;2.20;;;18.80;99.90;;;;;;5074483;28;20622;-71
2021/07/18 05:53:13;;;;;;;3.00;2.10;;;18.90;99.90;;;;;;5073451;28;20638;-70
2021/07/18 05:55:39;;;;;;;2.13;1.93;;;18.90;99.90;;;;;;5074222;28;21133;-70
2021/07/18 05:58:06;;;;;;;2.27;1.80;;;18.90;99.90;;;;;;5074127;28;20720;-70
2021/07/18 06:00:32;;;;;;;4.03;2.57;;;18.90;99.90;;;;;;5074200;28;20663;-71
2021/07/18 06:02:58;;;;;;;5.30;2.43;;;19.00;99.90;;;;;;5072736;28;20935;-70
2021/07/18 06:05:24;;;;;;;2.70;1.87;;;19.10;99.90;;;;;;5073951;28;20594;-70
2021/07/18 06:07:51;;;;;;;3.77;2.47;;;19.10;99.90;;;;;;5073907;28;20595;-70
2021/07/18 06:10:17;;;;;;;2.50;2.20;;;19.20;99.90;;;;;;5073927;28;21045;-70
2021/07/18 06:12:44;;;;;;;8.23;2.23;;;19.30;99.90;;;;;;5073977;28;20999;-70
2021/07/18 06:15:10;;;;;;;4.10;2.40;;;19.30;99.90;;;;;;5073805;28;20602;-70
2021/07/18 06:17:37;;;;;;;5.73;1.70;;;19.40;99.90;;;;;;5073875;28;20980;-70
2021/07/18 06:20:06;;;;;;;3.07;2.40;;;19.50;99.90;;;;;;5073689;28;20614;-70
2021/07/18 06:22:33;;;;;;;5.40;2.07;;;19.40;99.90;;;;;;5073704;28;20598;-70
2021/07/18 06:24:59;;;;;;;6.30;2.00;;;19.40;99.90;;;;;;5073567;28;21171;-70
2021/07/18 06:27:25;;;;;;;2.93;2.20;;;19.50;99.90;;;;;;5073981;28;20606;-70
2021/07/18 06:29:52;;;;;;;2.47;1.80;;;19.50;99.90;;;;;;5073615;28;20592;-71
2021/07/18 06:32:20;;;;;;;3.03;1.90;;;19.60;99.90;;;;;;5073440;28;20641;-70
2021/07/18 06:34:47;;;;;;;2.40;2.07;;;19.60;99.90;;;;;;5073992;28;20622;-70
2021/07/18 06:37:13;;;;;;;1.77;1.67;;;19.70;99.90;;;;;;5073893;28;20637;-71
2021/07/18 06:39:39;;;;;;;3.50;2.30;;;19.80;99.90;;;;;;5073416;28;20655;-70
2021/07/18 06:42:06;;;;;;;3.13;1.80;;;19.90;99.90;;;;;;5073639;28;20645;-71
2021/07/18 06:44:32;;;;;;;4.73;2.00;;;19.80;99.90;;;;;;5073306;28;20664;-70
2021/07/18 06:46:58;;;;;;;6.63;2.00;;;19.80;99.90;;;;;;5073284;28;20601;-70
2021/07/18 06:49:25;;;;;;;4.70;2.00;;;19.80;99.90;;;;;;5073391;28;20641;-70
2021/07/18 06:51:51;;;;;;;4.23;1.93;;;19.90;99.90;;;;;;5072497;28;21244;-71
2021/07/18 06:54:17;;;;;;;3.03;1.90;;;20.10;99.90;;;;;;5073861;28;20629;-71
2021/07/18 06:56:44;;;;;;;2.50;2.10;;;20.10;99.90;;;;;;5073581;28;20626;-71
2021/07/18 06:59:10;;;;;;;4.70;2.60;;;20.30;99.90;;;;;;5073642;28;20622;-71
2021/07/18 07:01:36;;;;;;;2.43;1.67;;;20.40;99.90;;;;;;5073332;28;20606;-71
2021/07/18 07:04:06;;;;;;;5.63;2.13;;;20.50;99.90;;;;;;5054983;28;20635;-71
2021/07/18 07:06:33;;;;;;;3.33;2.10;;;20.40;99.90;;;;;;5043870;28;20633;-72
2021/07/18 07:08:59;;;;;;;2.33;1.90;;;20.40;99.90;;;;;;5044322;28;20620;-72
2021/07/18 07:11:26;;;;;;;2.07;1.97;;;20.50;99.90;;;;;;5054163;28;20960;-72
2021/07/18 07:13:52;;;;;;;3.80;2.57;;;20.60;99.90;;;;;;5057216;28;20650;-70
2021/07/18 07:16:19;;;;;;;2.60;2.40;;;20.60;99.90;;;;;;5057268;28;20603;-71
2021/07/18 07:18:47;;;;;;;2.60;2.03;;;20.80;99.90;;;;;;5057344;28;20607;-71
2021/07/18 07:21:14;;;;;;;2.33;1.67;;;21.00;99.90;;;;;;5057369;28;20619;-71
2021/07/18 07:23:41;;;;;;;2.10;1.80;;;21.10;99.90;;;;;;5056987;28;20603;-71
2021/07/18 07:26:08;;;;;;;3.80;2.03;;;21.10;99.90;;;;;;5057038;28;21157;-71
2021/07/18 07:28:34;;;;;;;2.50;1.80;;;21.10;99.90;;;;;;5057139;28;20619;-71
2021/07/18 07:31:01;;;;;;;2.70;2.40;;;21.20;99.90;;;;;;5056864;28;20641;-71
2021/07/18 07:33:29;;;;;;;2.70;1.53;;;21.40;99.90;;;;;;5056932;28;20692;-70
2021/07/18 07:35:55;;;;;;;2.57;2.20;;;21.30;99.90;;;;;;5057016;28;20638;-71
2021/07/18 07:38:22;;;;;;;2.70;2.33;;;21.30;99.90;;;;;;5056787;28;20591;-71
2021/07/18 07:40:48;;;;;;;3.50;1.90;;;21.20;99.90;;;;;;5056573;28;20649;-71
2021/07/18 07:43:14;;;;;;;4.70;2.37;;;21.20;99.90;;;;;;5056758;28;20610;-71
2021/07/18 07:45:41;;;;;;;2.23;1.77;;;21.30;99.90;;;;;;5056888;28;20622;-71
2021/07/18 07:48:07;;;;;;;2.23;1.80;;;21.40;99.90;;;;;;5056498;28;20638;-71
2021/07/18 07:50:34;;;;;;;2.90;2.20;;;21.50;99.90;;;;;;5056738;28;20613;-71
2021/07/18 07:53:02;;;;;;;8.93;2.10;;;21.60;99.90;;;;;;5056370;28;20730;-71
2021/07/18 07:55:30;;;;;;;2.50;1.83;;;21.70;99.90;;;;;;5056284;28;20733;-71
2021/07/18 07:57:56;;;;;;;4.90;2.40;;;21.70;99.90;;;;;;5056424;28;20620;-71
2021/07/18 08:00:23;;;;;;;6.97;2.90;;;21.90;99.90;;;;;;5056508;28;20626;-70
2021/07/18 08:02:50;;;;;;;3.37;1.97;;;21.80;99.90;;;;;;5056386;28;20618;-70
2021/07/18 08:05:18;;;;;;;2.90;2.37;;;21.70;99.90;;;;;;5056620;28;20646;-70
2021/07/18 08:07:46;;;;;;;2.23;1.90;;;21.90;99.90;;;;;;5056303;28;20631;-70
2021/07/18 08:10:15;;;;;;;2.20;2.00;;;22.00;99.90;;;;;;5056110;28;20605;-70
2021/07/18 08:12:43;;;;;;;2.23;1.83;;;22.00;99.90;;;;;;5056093;28;20663;-70
2021/07/18 08:15:12;;;;;;;3.07;2.00;;;22.10;99.90;;;;;;5055874;28;20591;-70
2021/07/18 08:17:39;;;;;;;5.73;2.20;;;22.00;99.90;;;;;;5055171;28;20595;-70
2021/07/18 08:20:11;;;;;;;7.03;2.50;;;22.30;99.90;;;;;;5055992;28;21133;-70
2021/07/18 08:22:38;;;;;;;1.93;1.80;;;22.50;99.90;;;;;;5056021;28;20598;-70
2021/07/18 08:25:06;;;;;;;2.27;2.07;;;22.70;99.90;;;;;;5056096;28;20602;-71
2021/07/18 08:27:33;;;;;;;3.10;2.00;;;22.90;99.90;;;;;;5056251;28;20714;-70
2021/07/18 08:29:59;;;;;;;4.50;2.40;;;22.80;99.90;;;;;;5056340;28;20713;-70
2021/07/18 08:32:25;;;;;;;4.33;2.67;;;22.90;99.90;;;;;;5055593;28;20626;-71
2021/07/18 08:34:52;;;;;;;4.50;2.40;;;23.00;99.90;;;;;;5055532;28;20595;-70
2021/07/18 08:37:18;;;;;;;2.90;2.70;;;22.90;99.90;;;;;;5055737;28;20619;-71
2021/07/18 08:39:44;;;;;;;3.80;2.53;;;23.00;99.90;;;;;;5055553;28;20630;-70
2021/07/18 08:42:15;;;;;;;3.33;2.47;;;23.10;99.90;;;;;;5055837;28;20640;-71
2021/07/18 08:44:42;;;;;;;3.23;2.37;;;23.10;99.90;;;;;;5055967;28;20619;-70
2021/07/18 08:47:10;;;;;;;3.70;1.90;;;23.00;99.90;;;;;;5055380;28;20622;-71
2021/07/18 08:49:38;;;;;;;5.40;2.23;;;23.10;99.90;;;;;;5055505;28;20704;-70
2021/07/18 08:52:05;;;;;;;3.77;2.30;;;23.30;99.90;;;;;;5055359;28;20595;-70
2021/07/18 08:54:32;;;;;;;2.30;1.93;;;23.20;99.90;;;;;;5055381;28;20958;-71
2021/07/18 08:57:00;;;;;;;4.70;2.30;;;23.20;99.90;;;;;;5055472;28;20674;-71
2021/07/18 08:59:27;;;;;;;2.60;1.90;;;23.30;99.90;;;;;;5055589;28;20626;-71
2021/07/18 09:01:54;;;;;;;4.37;2.07;;;23.40;99.90;;;;;;5055075;28;20619;-71
2021/07/18 09:04:21;;;;;;;2.20;2.03;;;23.40;99.90;;;;;;5055228;28;20637;-71
2021/07/18 09:06:49;;;;;;;6.63;2.60;;;23.60;99.90;;;;;;5055043;28;20983;-71
2021/07/18 09:09:18;;;;;;;4.47;2.37;;;23.80;99.90;;;;;;5054724;28;20626;-72
2021/07/18 09:12:01;;;;;;;2.87;2.57;;;23.70;99.90;;;;;;5055195;28;20638;-72
2021/07/18 09:14:47;;;;;;;4.93;2.00;;;23.60;99.90;;;;;;5046865;28;20662;-72
2021/07/18 09:17:22;;;;;;;3.30;2.20;;;23.60;99.90;;;;;;5051491;28;20622;-72
2021/07/18 09:19:48;;;;;;;10.57;2.50;;;23.70;99.90;;;;;;5054534;28;20583;-73
2021/07/18 09:22:19;;;;;;;3.73;2.50;;;23.80;99.90;;;;;;5054394;28;20619;-72
2021/07/18 09:24:46;;;;;;;2.90;2.50;;;24.10;99.90;;;;;;5054799;28;20681;-72
2021/07/18 09:27:17;;;;;;;2.70;2.50;;;24.20;99.90;;;;;;5054618;28;20623;-72
2021/07/18 09:29:45;;;;;;;3.80;2.63;;;24.30;99.90;;;;;;5053834;28;20992;-77
2021/07/18 09:32:22;;;;;;;9.23;1.87;;;24.30;99.90;;;;;;5054520;28;20615;-77
2021/07/18 09:34:51;;;;;;;5.40;2.20;;;24.30;99.90;;;;;;5054271;28;20591;-76
2021/07/18 09:37:28;;;;;;;4.30;2.87;;;24.50;99.90;;;;;;5054186;28;20635;-76
2021/07/18 09:39:58;;;;;;;3.50;2.40;;;24.70;99.90;;;;;;5037622;28;20639;-76
2021/07/18 09:42:36;;;;;;;7.30;2.70;;;24.70;99.90;;;;;;5045232;28;20601;-76
2021/07/18 09:45:07;;;;;;;4.20;2.40;;;24.60;99.90;;;;;;5054509;28;20721;-76
2021/07/18 09:47:33;;;;;;;8.40;2.73;;;24.90;99.90;;;;;;5052913;28;20622;-76
2021/07/18 09:50:00;;;;;;;6.93;2.80;;;25.20;99.90;;;;;;5054472;28;21000;-76
2021/07/18 09:52:28;;;;;;;4.63;3.00;;;25.00;99.90;;;;;;5054152;28;20619;-76
2021/07/18 09:54:58;;;;;;;7.57;2.70;;;25.20;99.90;;;;;;5054318;28;21121;-76
2021/07/18 09:57:28;;;;;;;3.53;2.10;;;25.20;99.90;;;;;;5056294;28;20583;-76
2021/07/18 09:59:55;;;;;;;4.23;2.10;;;25.50;99.90;;;;;;5074445;28;20689;-76
2021/07/18 10:02:25;;;;;;;4.10;2.70;;;25.60;99.90;;;;;;5073902;28;20626;-76
2021/07/18 10:04:53;;;;;;;12.50;3.63;;;25.50;99.90;;;;;;5072186;28;20614;-76
2021/07/18 10:07:22;;;;;;;4.90;4.40;;;25.30;99.90;;;;;;5051475;28;20642;-76
2021/07/18 10:09:52;;;;;;;3.10;2.00;;;25.10;99.90;;;;;;5039890;28;20628;-76
2021/07/18 10:12:18;;;;;;;3.40;2.50;;;25.50;99.90;;;;;;5054025;28;20587;-76
2021/07/18 10:14:45;;;;;;;4.20;2.73;;;25.40;99.90;;;;;;5054447;28;20710;-76
2021/07/18 10:17:12;;;;;;;4.67;2.87;;;25.80;99.90;;;;;;5054127;28;20650;-76
2021/07/18 10:19:38;;;;;;;5.17;2.50;;;25.60;99.90;;;;;;5054463;28;20962;-76
2021/07/18 10:22:07;;;;;;;4.00;2.57;;;25.70;99.90;;;;;;5054261;28;20603;-76
2021/07/18 10:24:33;;;;;;;10.60;2.20;;;25.50;99.90;;;;;;5054476;28;20619;-75
2021/07/18 10:27:04;;;;;;;7.17;2.70;;;25.70;99.90;;;;;;5054269;28;20984;-76
2021/07/18 10:29:32;;;;;;;5.10;2.10;;;25.70;99.90;;;;;;5054162;28;20630;-76
2021/07/18 10:32:04;;;;;;;2.80;2.30;;;25.80;99.90;;;;;;5052464;28;20618;-76
2021/07/18 10:34:35;;;;;;;2.60;2.30;;;25.90;99.90;;;;;;5052322;28;20714;-76
2021/07/18 10:37:07;;;;;;;3.80;1.80;;;25.70;99.90;;;;;;5053983;28;20579;-77
2021/07/18 10:39:41;;;;;;;2.80;2.60;;;25.80;99.90;;;;;;5053290;28;20627;-76
2021/07/18 10:42:31;;;;;;;9.60;2.20;;;25.90;99.90;;;;;;5053803;28;20631;-76
2021/07/18 10:45:00;;;;;;;2.83;2.00;;;25.90;99.90;;;;;;5053810;28;20919;-76
2021/07/18 10:47:56;;;;;;;2.37;2.20;;;26.10;99.90;;;;;;5053253;28;20963;-76
2021/07/18 10:50:42;;;;;;;2.17;1.97;;;26.60;99.90;;;;;;5053692;28;20707;-76
2021/07/18 10:53:22;;;;;;;2.03;1.93;;;26.40;99.90;;;;;;5053842;28;20672;-76
2021/07/18 10:55:50;;;;;;;5.30;2.63;;;26.50;99.90;;;;;;5053402;28;20547;-76
2021/07/18 10:58:38;;;;;;;3.93;2.20;;;26.40;99.90;;;;;;5053525;28;20601;-77
2021/07/18 11:01:24;;;;;;;14.87;2.20;;;26.70;99.90;;;;;;5053577;28;20623;-76
2021/07/18 11:03:50;;;;;;;7.90;2.73;;;27.10;99.90;;;;;;5053085;28;20619;-76
2021/07/18 11:06:21;;;;;;;3.30;2.17;;;27.40;99.90;;;;;;5053980;28;21212;-77
2021/07/18 11:09:06;;;;;;;5.33;2.37;;;27.20;99.90;;;;;;5053425;28;20605;-76
2021/07/18 11:11:44;;;;;;;3.43;2.57;;;27.30;99.90;;;;;;5053373;28;20615;-77
2021/07/18 11:14:35;;;;;;;3.80;2.20;;;27.00;99.90;;;;;;5053471;28;21011;-77
2021/07/18 11:17:07;;;;;;;3.47;2.37;;;26.80;99.90;;;;;;5053604;28;20970;-76
2021/07/18 11:19:39;;;;;;;3.03;2.47;;;26.90;99.90;;;;;;5053581;28;20629;-76
2021/07/18 11:22:14;;;;;;;2.60;2.40;;;27.00;99.90;;;;;;5053172;28;21155;-76
2021/07/18 11:24:56;;;;;;;4.03;2.60;;;26.70;99.90;;;;;;5053655;28;20915;-75
2021/07/18 11:27:28;;;;;;;7.13;1.87;;;27.10;99.90;;;;;;5053318;28;20556;-76
2021/07/18 11:29:56;;;;;;;3.40;2.13;;;27.90;99.90;;;;;;5053126;28;20619;-75
2021/07/18 11:32:28;;;;;;;3.10;2.30;;;28.60;99.90;;;;;;5053171;28;20602;-76
2021/07/18 11:34:56;;;;;;;3.10;2.30;;;28.60;99.90;;;;;;5053402;28;21161;-76
2021/07/18 11:37:23;;;;;;;3.93;2.30;;;28.90;99.90;;;;;;5053331;28;20587;-76
2021/07/18 11:39:49;;;;;;;3.60;2.53;;;29.10;99.90;;;;;;5053188;28;20634;-76
2021/07/18 11:42:17;;;;;;;3.53;2.30;;;28.40;99.90;;;;;;5053395;28;20635;-76
2021/07/18 11:44:45;;;;;;;4.33;2.90;;;28.10;99.90;;;;;;5052957;28;20609;-76
2021/07/18 11:47:14;;;;;;;8.13;2.57;;;28.30;99.90;;;;;;5052571;28;20610;-75
2021/07/18 11:49:44;;;;;;;5.30;2.30;;;28.40;99.90;;;;;;5053608;28;21248;-76
2021/07/18 11:52:11;;;;;;;9.80;2.90;;;28.60;99.90;;;;;;5055048;28;20627;-77
2021/07/18 11:54:38;;;;;;;8.80;3.10;;;28.90;99.90;;;;;;5056703;28;20670;-77
2021/07/18 11:57:10;;;;;;;5.50;3.20;;;29.00;99.90;;;;;;5056524;28;20718;-76
2021/07/18 11:59:38;;;;;;;3.27;3.07;;;29.20;99.90;;;;;;5056233;28;20710;-76
2021/07/18 12:02:06;;;;;;;3.93;3.63;;;29.10;99.90;;;;;;5056705;28;20958;-76
2021/07/18 12:04:33;;;;;;;5.53;3.73;;;28.90;99.90;;;;;;5054593;28;21161;-76
2021/07/18 12:07:07;;;;;;;3.40;3.10;;;28.80;99.90;;;;;;5056309;28;20680;-76
2021/07/18 12:09:41;;;;;;;3.27;2.97;;;29.40;99.90;;;;;;5056332;28;20722;-75
2021/07/18 12:12:15;;;;;;;4.23;3.20;;;30.30;99.90;;;;;;5056152;28;20566;-76
2021/07/18 12:14:42;;;;;;;7.63;3.07;;;29.80;99.90;;;;;;5055925;28;20662;-76
2021/07/18 12:17:11;;;;;;;9.30;3.10;;;29.30;99.90;;;;;;5054653;28;20704;-76
2021/07/18 12:19:38;;;;;;;4.10;3.80;;;30.10;99.90;;;;;;5054692;28;20634;-76
2021/07/18 12:22:13;;;;;;;3.20;2.90;;;30.10;99.90;;;;;;5056007;28;20591;-75
2021/07/18 12:24:48;;;;;;;4.80;4.30;;;29.70;99.90;;;;;;5055919;28;20626;-75
2021/07/18 12:27:16;;;;;;;5.20;3.40;;;29.10;99.90;;;;;;5055973;28;20593;-76
2021/07/18 12:29:53;;;;;;;2.57;2.30;;;29.40;99.90;;;;;;5056511;28;20713;-76
2021/07/18 12:32:24;;;;;;;3.30;2.70;;;29.80;99.90;;;;;;5056051;28;20613;-77
2021/07/18 12:34:52;;;;;;;4.80;3.03;;;30.00;99.90;;;;;;5056051;28;20654;-77
2021/07/18 12:37:21;;;;;;;4.27;2.43;;;30.40;99.90;;;;;;5055857;28;20591;-76
2021/07/18 12:39:53;;;;;;;3.07;2.33;;;30.80;99.90;;;;;;5054410;28;20647;-76
2021/07/18 12:42:25;;;;;;;3.50;2.63;;;30.40;99.90;;;;;;5055635;28;20609;-76
2021/07/18 12:44:54;;;;;;;3.33;2.50;;;30.10;99.90;;;;;;5056043;28;21104;-76
2021/07/18 12:47:33;;;;;;;3.03;2.40;;;30.10;99.90;;;;;;5055691;28;20619;-75
2021/07/18 12:50:25;;;;;;;6.30;2.37;;;30.00;99.90;;;;;;5055604;28;20556;-75